sensor_id;sensor_type;location;lat;lon;timestamp;P1;durP1;ratioP1;P2;durP2;ratioP2
67516;SDS011;68821;59.134;37.894;2023-12-28T00:01:35;189.10;;;53.65;;
67516;SDS011;68821;59.134;37.894;2023-12-28T00:04:01;205.35;;;54.33;;
67516;SDS011;68821;59.134;37.894;2023-12-28T00:06:27;182.88;;;50.17;;
67516;SDS011;68821;59.134;37.894;2023-12-28T00:08:53;178.57;;;47.65;;
67516;SDS011;68821;59.134;37.894;2023-12-28T00:11:19;218.45;;;57.35;;
67516;SDS011;68821;59.134;37.894;2023-12-28T00:13:46;189.80;;;52.70;;
67516;SDS011;68821;59.134;37.894;2023-12-28T00:16:12;188.75;;;50.25;;
67516;SDS011;68821;59.134;37.894;2023-12-28T00:18:38;163.10;;;45.38;;
67516;SDS011;68821;59.134;37.894;2023-12-28T00:21:04;177.65;;;48.00;;
67516;SDS011;68821;59.134;37.894;2023-12-28T00:23:30;151.38;;;44.33;;
67516;SDS011;68821;59.134;37.894;2023-12-28T00:25:56;164.55;;;48.05;;
67516;SDS011;68821;59.134;37.894;2023-12-28T00:28:23;148.93;;;46.05;;
67516;SDS011;68821;59.134;37.894;2023-12-28T00:30:50;166.07;;;44.40;;
67516;SDS011;68821;59.134;37.894;2023-12-28T00:33:16;208.95;;;56.47;;
67516;SDS011;68821;59.134;37.894;2023-12-28T00:35:42;209.23;;;56.88;;
67516;SDS011;68821;59.134;37.894;2023-12-28T00:38:08;166.50;;;44.88;;
67516;SDS011;68821;59.134;37.894;2023-12-28T00:40:34;139.35;;;40.17;;
67516;SDS011;68821;59.134;37.894;2023-12-28T00:43:00;112.70;;;35.20;;
67516;SDS011;68821;59.134;37.894;2023-12-28T00:45:26;88.93;;;29.42;;
67516;SDS011;68821;59.134;37.894;2023-12-28T00:47:52;75.03;;;24.88;;
67516;SDS011;68821;59.134;37.894;2023-12-28T00:50:21;51.10;;;18.55;;
67516;SDS011;68821;59.134;37.894;2023-12-28T00:52:47;40.88;;;13.90;;
67516;SDS011;68821;59.134;37.894;2023-12-28T00:55:13;44.35;;;12.38;;
67516;SDS011;68821;59.134;37.894;2023-12-28T00:57:39;30.27;;;8.35;;
67516;SDS011;68821;59.134;37.894;2023-12-28T01:00:05;34.03;;;8.77;;
67516;SDS011;68821;59.134;37.894;2023-12-28T01:02:32;29.70;;;9.27;;
67516;SDS011;68821;59.134;37.894;2023-12-28T01:04:58;26.48;;;9.25;;
67516;SDS011;68821;59.134;37.894;2023-12-28T01:07:24;40.25;;;10.95;;
67516;SDS011;68821;59.134;37.894;2023-12-28T01:09:50;37.63;;;11.38;;
67516;SDS011;68821;59.134;37.894;2023-12-28T01:12:16;34.08;;;12.07;;
67516;SDS011;68821;59.134;37.894;2023-12-28T01:14:42;42.55;;;13.98;;
67516;SDS011;68821;59.134;37.894;2023-12-28T01:17:08;45.45;;;18.00;;
67516;SDS011;68821;59.134;37.894;2023-12-28T01:19:34;35.67;;;14.35;;
67516;SDS011;68821;59.134;37.894;2023-12-28T01:22:01;50.03;;;16.23;;
67516;SDS011;68821;59.134;37.894;2023-12-28T01:24:27;38.72;;;11.25;;
67516;SDS011;68821;59.134;37.894;2023-12-28T01:26:53;31.83;;;11.30;;
67516;SDS011;68821;59.134;37.894;2023-12-28T01:29:19;39.97;;;11.32;;
67516;SDS011;68821;59.134;37.894;2023-12-28T01:31:45;36.13;;;11.45;;
67516;SDS011;68821;59.134;37.894;2023-12-28T01:34:11;44.28;;;14.95;;
67516;SDS011;68821;59.134;37.894;2023-12-28T01:36:38;34.85;;;10.23;;
67516;SDS011;68821;59.134;37.894;2023-12-28T01:39:07;30.92;;;11.95;;
67516;SDS011;68821;59.134;37.894;2023-12-28T01:41:33;81.25;;;23.67;;
67516;SDS011;68821;59.134;37.894;2023-12-28T01:43:59;124.55;;;34.58;;
67516;SDS011;68821;59.134;37.894;2023-12-28T01:46:25;117.15;;;34.50;;
67516;SDS011;68821;59.134;37.894;2023-12-28T01:48:51;117.88;;;34.92;;
67516;SDS011;68821;59.134;37.894;2023-12-28T01:51:18;59.13;;;20.63;;
67516;SDS011;68821;59.134;37.894;2023-12-28T01:53:45;63.78;;;17.42;;
67516;SDS011;68821;59.134;37.894;2023-12-28T01:56:13;75.60;;;23.30;;
67516;SDS011;68821;59.134;37.894;2023-12-28T01:58:41;56.35;;;18.45;;
67516;SDS011;68821;59.134;37.894;2023-12-28T02:01:10;43.38;;;16.67;;
67516;SDS011;68821;59.134;37.894;2023-12-28T02:03:36;57.83;;;18.25;;
67516;SDS011;68821;59.134;37.894;2023-12-28T02:06:04;55.20;;;18.42;;
67516;SDS011;68821;59.134;37.894;2023-12-28T02:08:32;62.25;;;22.55;;
67516;SDS011;68821;59.134;37.894;2023-12-28T02:10:58;63.53;;;21.48;;
67516;SDS011;68821;59.134;37.894;2023-12-28T02:13:25;73.78;;;27.33;;
67516;SDS011;68821;59.134;37.894;2023-12-28T02:15:53;92.97;;;29.60;;
67516;SDS011;68821;59.134;37.894;2023-12-28T02:18:26;65.88;;;27.40;;
67516;SDS011;68821;59.134;37.894;2023-12-28T02:21:00;64.70;;;22.83;;
67516;SDS011;68821;59.134;37.894;2023-12-28T02:25:54;61.85;;;24.35;;
67516;SDS011;68821;59.134;37.894;2023-12-28T02:28:20;86.15;;;26.65;;
67516;SDS011;68821;59.134;37.894;2023-12-28T02:30:46;80.82;;;29.67;;
67516;SDS011;68821;59.134;37.894;2023-12-28T02:33:15;56.42;;;18.10;;
67516;SDS011;68821;59.134;37.894;2023-12-28T02:35:57;50.70;;;13.82;;
67516;SDS011;68821;59.134;37.894;2023-12-28T02:38:27;41.88;;;13.98;;
67516;SDS011;68821;59.134;37.894;2023-12-28T02:40:55;40.60;;;14.60;;
67516;SDS011;68821;59.134;37.894;2023-12-28T02:43:23;36.22;;;11.88;;
67516;SDS011;68821;59.134;37.894;2023-12-28T02:45:49;28.38;;;11.30;;
67516;SDS011;68821;59.134;37.894;2023-12-28T02:48:15;37.30;;;11.80;;
67516;SDS011;68821;59.134;37.894;2023-12-28T02:50:41;29.10;;;11.40;;
67516;SDS011;68821;59.134;37.894;2023-12-28T02:53:07;58.33;;;21.88;;
67516;SDS011;68821;59.134;37.894;2023-12-28T02:55:33;73.93;;;23.95;;
67516;SDS011;68821;59.134;37.894;2023-12-28T02:57:59;109.32;;;30.90;;
67516;SDS011;68821;59.134;37.894;2023-12-28T03:00:25;89.72;;;31.30;;
67516;SDS011;68821;59.134;37.894;2023-12-28T03:02:52;103.20;;;31.75;;
67516;SDS011;68821;59.134;37.894;2023-12-28T03:05:18;120.15;;;38.00;;
67516;SDS011;68821;59.134;37.894;2023-12-28T03:07:44;117.97;;;33.97;;
67516;SDS011;68821;59.134;37.894;2023-12-28T03:10:11;113.72;;;36.65;;
67516;SDS011;68821;59.134;37.894;2023-12-28T03:12:37;138.57;;;38.83;;
67516;SDS011;68821;59.134;37.894;2023-12-28T03:15:03;147.00;;;43.30;;
67516;SDS011;68821;59.134;37.894;2023-12-28T03:17:30;132.52;;;38.63;;
67516;SDS011;68821;59.134;37.894;2023-12-28T03:19:58;122.97;;;33.97;;
67516;SDS011;68821;59.134;37.894;2023-12-28T03:22:25;66.65;;;20.52;;
67516;SDS011;68821;59.134;37.894;2023-12-28T03:24:51;32.83;;;11.02;;
67516;SDS011;68821;59.134;37.894;2023-12-28T03:27:17;41.22;;;12.48;;
67516;SDS011;68821;59.134;37.894;2023-12-28T03:29:43;45.33;;;16.52;;
67516;SDS011;68821;59.134;37.894;2023-12-28T03:32:10;50.63;;;18.15;;
67516;SDS011;68821;59.134;37.894;2023-12-28T03:34:36;39.63;;;15.20;;
67516;SDS011;68821;59.134;37.894;2023-12-28T03:37:02;39.00;;;12.95;;
67516;SDS011;68821;59.134;37.894;2023-12-28T03:39:29;32.55;;;10.70;;
67516;SDS011;68821;59.134;37.894;2023-12-28T03:41:55;32.60;;;13.43;;
67516;SDS011;68821;59.134;37.894;2023-12-28T03:44:21;39.05;;;19.02;;
67516;SDS011;68821;59.134;37.894;2023-12-28T03:46:47;28.02;;;12.90;;
67516;SDS011;68821;59.134;37.894;2023-12-28T03:49:20;41.83;;;16.58;;
67516;SDS011;68821;59.134;37.894;2023-12-28T03:51:47;35.05;;;12.02;;
67516;SDS011;68821;59.134;37.894;2023-12-28T03:54:18;38.78;;;20.58;;
67516;SDS011;68821;59.134;37.894;2023-12-28T03:56:45;59.83;;;31.45;;
67516;SDS011;68821;59.134;37.894;2023-12-28T03:59:12;41.35;;;19.95;;
67516;SDS011;68821;59.134;37.894;2023-12-28T04:01:38;54.00;;;24.52;;
67516;SDS011;68821;59.134;37.894;2023-12-28T04:04:04;49.20;;;18.73;;
67516;SDS011;68821;59.134;37.894;2023-12-28T04:06:30;26.77;;;11.90;;
67516;SDS011;68821;59.134;37.894;2023-12-28T04:08:56;17.90;;;6.18;;
67516;SDS011;68821;59.134;37.894;2023-12-28T04:11:22;23.10;;;7.10;;
67516;SDS011;68821;59.134;37.894;2023-12-28T04:13:49;34.15;;;15.00;;
67516;SDS011;68821;59.134;37.894;2023-12-28T04:16:16;35.60;;;15.90;;
67516;SDS011;68821;59.134;37.894;2023-12-28T04:18:42;35.53;;;14.77;;
67516;SDS011;68821;59.134;37.894;2023-12-28T04:21:09;23.73;;;12.55;;
67516;SDS011;68821;59.134;37.894;2023-12-28T04:23:38;29.02;;;9.93;;
67516;SDS011;68821;59.134;37.894;2023-12-28T04:26:06;38.03;;;13.63;;
67516;SDS011;68821;59.134;37.894;2023-12-28T04:28:32;39.33;;;13.10;;
67516;SDS011;68821;59.134;37.894;2023-12-28T04:31:06;19.90;;;7.35;;
67516;SDS011;68821;59.134;37.894;2023-12-28T04:33:32;35.70;;;12.80;;
67516;SDS011;68821;59.134;37.894;2023-12-28T04:36:02;56.38;;;16.38;;
67516;SDS011;68821;59.134;37.894;2023-12-28T04:38:32;50.47;;;17.73;;
67516;SDS011;68821;59.134;37.894;2023-12-28T04:40:58;37.92;;;15.63;;
67516;SDS011;68821;59.134;37.894;2023-12-28T04:43:25;42.58;;;15.38;;
67516;SDS011;68821;59.134;37.894;2023-12-28T04:45:52;27.08;;;9.70;;
67516;SDS011;68821;59.134;37.894;2023-12-28T04:48:18;12.02;;;5.28;;
67516;SDS011;68821;59.134;37.894;2023-12-28T04:50:47;22.98;;;7.95;;
67516;SDS011;68821;59.134;37.894;2023-12-28T04:53:13;30.17;;;10.80;;
67516;SDS011;68821;59.134;37.894;2023-12-28T04:55:40;21.35;;;8.55;;
67516;SDS011;68821;59.134;37.894;2023-12-28T04:58:06;38.63;;;12.27;;
67516;SDS011;68821;59.134;37.894;2023-12-28T05:00:32;40.35;;;12.98;;
67516;SDS011;68821;59.134;37.894;2023-12-28T05:02:58;71.10;;;25.67;;
67516;SDS011;68821;59.134;37.894;2023-12-28T05:05:24;51.92;;;18.52;;
67516;SDS011;68821;59.134;37.894;2023-12-28T05:07:50;53.92;;;16.45;;
67516;SDS011;68821;59.134;37.894;2023-12-28T05:10:16;30.40;;;13.13;;
67516;SDS011;68821;59.134;37.894;2023-12-28T05:12:42;43.97;;;16.77;;
67516;SDS011;68821;59.134;37.894;2023-12-28T05:15:09;51.20;;;15.65;;
67516;SDS011;68821;59.134;37.894;2023-12-28T05:17:35;51.63;;;16.05;;
67516;SDS011;68821;59.134;37.894;2023-12-28T05:20:01;30.85;;;11.60;;
67516;SDS011;68821;59.134;37.894;2023-12-28T05:22:28;31.05;;;10.77;;
67516;SDS011;68821;59.134;37.894;2023-12-28T05:24:54;28.00;;;11.90;;
67516;SDS011;68821;59.134;37.894;2023-12-28T05:27:20;33.25;;;12.48;;
67516;SDS011;68821;59.134;37.894;2023-12-28T05:29:47;37.42;;;12.45;;
67516;SDS011;68821;59.134;37.894;2023-12-28T05:32:13;27.00;;;12.10;;
67516;SDS011;68821;59.134;37.894;2023-12-28T05:34:39;21.23;;;7.43;;
67516;SDS011;68821;59.134;37.894;2023-12-28T05:37:06;27.38;;;9.23;;
67516;SDS011;68821;59.134;37.894;2023-12-28T05:39:32;20.88;;;5.82;;
67516;SDS011;68821;59.134;37.894;2023-12-28T05:41:58;21.73;;;7.60;;
67516;SDS011;68821;59.134;37.894;2023-12-28T05:44:25;44.90;;;12.40;;
67516;SDS011;68821;59.134;37.894;2023-12-28T05:46:51;22.50;;;6.95;;
67516;SDS011;68821;59.134;37.894;2023-12-28T05:49:18;27.30;;;9.25;;
67516;SDS011;68821;59.134;37.894;2023-12-28T05:51:44;41.67;;;13.82;;
67516;SDS011;68821;59.134;37.894;2023-12-28T05:54:10;54.92;;;20.67;;
67516;SDS011;68821;59.134;37.894;2023-12-28T05:56:36;33.80;;;12.75;;
67516;SDS011;68821;59.134;37.894;2023-12-28T05:59:03;28.10;;;9.93;;
67516;SDS011;68821;59.134;37.894;2023-12-28T06:01:29;30.02;;;11.10;;
67516;SDS011;68821;59.134;37.894;2023-12-28T06:03:55;39.58;;;12.02;;
67516;SDS011;68821;59.134;37.894;2023-12-28T06:06:22;33.25;;;12.73;;
67516;SDS011;68821;59.134;37.894;2023-12-28T06:08:48;24.52;;;10.95;;
67516;SDS011;68821;59.134;37.894;2023-12-28T06:11:14;25.50;;;11.43;;
67516;SDS011;68821;59.134;37.894;2023-12-28T06:13:41;28.85;;;11.95;;
67516;SDS011;68821;59.134;37.894;2023-12-28T06:16:08;41.67;;;13.02;;
67516;SDS011;68821;59.134;37.894;2023-12-28T06:18:34;77.18;;;24.45;;
67516;SDS011;68821;59.134;37.894;2023-12-28T06:21:01;68.85;;;21.65;;
67516;SDS011;68821;59.134;37.894;2023-12-28T06:23:28;51.50;;;18.50;;
67516;SDS011;68821;59.134;37.894;2023-12-28T06:25:54;49.80;;;17.83;;
67516;SDS011;68821;59.134;37.894;2023-12-28T06:28:21;42.40;;;15.88;;
67516;SDS011;68821;59.134;37.894;2023-12-28T06:30:47;41.20;;;16.15;;
67516;SDS011;68821;59.134;37.894;2023-12-28T06:33:13;42.25;;;14.38;;
67516;SDS011;68821;59.134;37.894;2023-12-28T06:35:41;38.53;;;18.05;;
67516;SDS011;68821;59.134;37.894;2023-12-28T06:38:08;27.20;;;11.02;;
67516;SDS011;68821;59.134;37.894;2023-12-28T06:40:34;52.80;;;20.80;;
67516;SDS011;68821;59.134;37.894;2023-12-28T06:43:01;20.27;;;8.95;;
67516;SDS011;68821;59.134;37.894;2023-12-28T06:45:27;26.20;;;11.73;;
67516;SDS011;68821;59.134;37.894;2023-12-28T06:47:54;30.42;;;13.30;;
67516;SDS011;68821;59.134;37.894;2023-12-28T06:50:20;30.63;;;13.43;;
67516;SDS011;68821;59.134;37.894;2023-12-28T06:52:46;34.78;;;15.75;;
67516;SDS011;68821;59.134;37.894;2023-12-28T06:55:12;24.35;;;8.57;;
67516;SDS011;68821;59.134;37.894;2023-12-28T06:57:39;16.95;;;6.18;;
67516;SDS011;68821;59.134;37.894;2023-12-28T07:00:05;16.17;;;5.20;;
67516;SDS011;68821;59.134;37.894;2023-12-28T07:02:32;19.88;;;6.70;;
67516;SDS011;68821;59.134;37.894;2023-12-28T07:04:58;15.93;;;4.78;;
67516;SDS011;68821;59.134;37.894;2023-12-28T07:07:25;10.95;;;4.07;;
67516;SDS011;68821;59.134;37.894;2023-12-28T07:09:51;9.80;;;4.18;;
67516;SDS011;68821;59.134;37.894;2023-12-28T07:12:17;11.57;;;4.88;;
67516;SDS011;68821;59.134;37.894;2023-12-28T07:14:46;19.15;;;5.97;;
67516;SDS011;68821;59.134;37.894;2023-12-28T07:17:12;16.35;;;5.03;;
67516;SDS011;68821;59.134;37.894;2023-12-28T07:19:43;16.05;;;6.68;;
67516;SDS011;68821;59.134;37.894;2023-12-28T07:22:10;15.45;;;6.15;;
67516;SDS011;68821;59.134;37.894;2023-12-28T07:24:36;12.32;;;5.00;;
67516;SDS011;68821;59.134;37.894;2023-12-28T07:27:02;15.90;;;5.85;;
67516;SDS011;68821;59.134;37.894;2023-12-28T07:29:28;16.40;;;5.47;;
67516;SDS011;68821;59.134;37.894;2023-12-28T07:31:54;17.48;;;4.88;;
67516;SDS011;68821;59.134;37.894;2023-12-28T07:34:20;16.35;;;6.22;;
67516;SDS011;68821;59.134;37.894;2023-12-28T07:36:46;18.02;;;4.35;;
67516;SDS011;68821;59.134;37.894;2023-12-28T07:39:12;12.73;;;5.50;;
67516;SDS011;68821;59.134;37.894;2023-12-28T07:41:38;12.77;;;5.80;;
67516;SDS011;68821;59.134;37.894;2023-12-28T07:44:04;11.43;;;5.68;;
67516;SDS011;68821;59.134;37.894;2023-12-28T07:46:30;13.27;;;5.65;;
67516;SDS011;68821;59.134;37.894;2023-12-28T07:48:56;16.55;;;5.80;;
67516;SDS011;68821;59.134;37.894;2023-12-28T07:51:22;20.00;;;6.47;;
67516;SDS011;68821;59.134;37.894;2023-12-28T07:53:48;17.58;;;6.97;;
67516;SDS011;68821;59.134;37.894;2023-12-28T07:56:14;15.27;;;4.72;;
67516;SDS011;68821;59.134;37.894;2023-12-28T07:58:40;24.20;;;4.82;;
67516;SDS011;68821;59.134;37.894;2023-12-28T08:01:12;14.93;;;5.95;;
67516;SDS011;68821;59.134;37.894;2023-12-28T08:03:38;19.73;;;7.38;;
67516;SDS011;68821;59.134;37.894;2023-12-28T08:06:04;26.02;;;6.35;;
67516;SDS011;68821;59.134;37.894;2023-12-28T08:08:31;23.27;;;6.60;;
67516;SDS011;68821;59.134;37.894;2023-12-28T08:10:57;17.38;;;7.05;;
67516;SDS011;68821;59.134;37.894;2023-12-28T08:13:23;20.52;;;6.65;;
67516;SDS011;68821;59.134;37.894;2023-12-28T08:15:49;21.63;;;7.93;;
67516;SDS011;68821;59.134;37.894;2023-12-28T08:18:15;15.77;;;7.07;;
67516;SDS011;68821;59.134;37.894;2023-12-28T08:20:41;22.00;;;7.38;;
67516;SDS011;68821;59.134;37.894;2023-12-28T08:23:07;16.98;;;7.30;;
67516;SDS011;68821;59.134;37.894;2023-12-28T08:25:33;27.75;;;14.52;;
67516;SDS011;68821;59.134;37.894;2023-12-28T08:28:00;21.02;;;8.90;;
67516;SDS011;68821;59.134;37.894;2023-12-28T08:30:26;24.73;;;9.55;;
67516;SDS011;68821;59.134;37.894;2023-12-28T08:32:53;34.88;;;14.45;;
67516;SDS011;68821;59.134;37.894;2023-12-28T08:35:19;22.58;;;11.55;;
67516;SDS011;68821;59.134;37.894;2023-12-28T08:37:45;40.13;;;23.25;;
67516;SDS011;68821;59.134;37.894;2023-12-28T08:40:11;40.90;;;21.38;;
67516;SDS011;68821;59.134;37.894;2023-12-28T08:42:37;23.17;;;12.77;;
67516;SDS011;68821;59.134;37.894;2023-12-28T08:45:03;43.33;;;22.27;;
67516;SDS011;68821;59.134;37.894;2023-12-28T08:47:29;39.28;;;21.00;;
67516;SDS011;68821;59.134;37.894;2023-12-28T08:49:55;48.20;;;25.00;;
67516;SDS011;68821;59.134;37.894;2023-12-28T08:52:21;41.05;;;22.27;;
67516;SDS011;68821;59.134;37.894;2023-12-28T08:54:47;57.15;;;27.10;;
67516;SDS011;68821;59.134;37.894;2023-12-28T08:57:13;35.42;;;19.73;;
67516;SDS011;68821;59.134;37.894;2023-12-28T08:59:39;40.30;;;19.60;;
67516;SDS011;68821;59.134;37.894;2023-12-28T09:02:05;30.30;;;12.52;;
67516;SDS011;68821;59.134;37.894;2023-12-28T09:04:33;51.03;;;25.98;;
67516;SDS011;68821;59.134;37.894;2023-12-28T09:06:58;30.58;;;14.65;;
67516;SDS011;68821;59.134;37.894;2023-12-28T09:09:25;45.03;;;25.77;;
67516;SDS011;68821;59.134;37.894;2023-12-28T09:11:51;33.58;;;19.38;;
67516;SDS011;68821;59.134;37.894;2023-12-28T09:14:17;35.35;;;19.35;;
67516;SDS011;68821;59.134;37.894;2023-12-28T09:16:44;31.02;;;11.00;;
67516;SDS011;68821;59.134;37.894;2023-12-28T09:19:12;44.25;;;19.58;;
67516;SDS011;68821;59.134;37.894;2023-12-28T09:21:38;42.88;;;20.88;;
67516;SDS011;68821;59.134;37.894;2023-12-28T09:24:04;35.25;;;13.93;;
67516;SDS011;68821;59.134;37.894;2023-12-28T09:26:31;34.72;;;13.20;;
67516;SDS011;68821;59.134;37.894;2023-12-28T09:28:58;34.85;;;11.57;;
67516;SDS011;68821;59.134;37.894;2023-12-28T09:31:25;27.98;;;11.23;;
67516;SDS011;68821;59.134;37.894;2023-12-28T09:33:51;28.02;;;10.50;;
67516;SDS011;68821;59.134;37.894;2023-12-28T09:36:18;19.15;;;9.25;;
67516;SDS011;68821;59.134;37.894;2023-12-28T09:38:44;27.77;;;9.13;;
67516;SDS011;68821;59.134;37.894;2023-12-28T09:41:11;19.30;;;6.55;;
67516;SDS011;68821;59.134;37.894;2023-12-28T09:43:52;19.08;;;6.28;;
67516;SDS011;68821;59.134;37.894;2023-12-28T09:46:20;15.75;;;4.63;;
67516;SDS011;68821;59.134;37.894;2023-12-28T09:48:47;9.63;;;4.32;;
67516;SDS011;68821;59.134;37.894;2023-12-28T09:51:13;14.05;;;5.03;;
67516;SDS011;68821;59.134;37.894;2023-12-28T09:53:40;15.40;;;4.88;;
67516;SDS011;68821;59.134;37.894;2023-12-28T09:56:09;12.23;;;4.68;;
67516;SDS011;68821;59.134;37.894;2023-12-28T09:58:37;22.92;;;5.45;;
67516;SDS011;68821;59.134;37.894;2023-12-28T10:01:05;10.32;;;4.63;;
67516;SDS011;68821;59.134;37.894;2023-12-28T10:03:33;20.17;;;3.92;;
67516;SDS011;68821;59.134;37.894;2023-12-28T10:06:01;21.77;;;4.07;;
67516;SDS011;68821;59.134;37.894;2023-12-28T10:08:27;17.70;;;4.85;;
67516;SDS011;68821;59.134;37.894;2023-12-28T10:10:53;18.63;;;5.20;;
67516;SDS011;68821;59.134;37.894;2023-12-28T10:13:21;11.88;;;5.30;;
67516;SDS011;68821;59.134;37.894;2023-12-28T10:15:47;17.48;;;5.15;;
67516;SDS011;68821;59.134;37.894;2023-12-28T10:18:16;12.80;;;4.50;;
67516;SDS011;68821;59.134;37.894;2023-12-28T10:20:51;16.80;;;5.40;;
67516;SDS011;68821;59.134;37.894;2023-12-28T10:23:19;19.17;;;6.22;;
67516;SDS011;68821;59.134;37.894;2023-12-28T10:28:13;21.42;;;5.20;;
67516;SDS011;68821;59.134;37.894;2023-12-28T10:30:44;15.90;;;4.88;;
67516;SDS011;68821;59.134;37.894;2023-12-28T10:33:10;11.93;;;4.40;;
67516;SDS011;68821;59.134;37.894;2023-12-28T10:35:36;14.13;;;4.60;;
67516;SDS011;68821;59.134;37.894;2023-12-28T10:38:02;15.13;;;5.13;;
67516;SDS011;68821;59.134;37.894;2023-12-28T10:40:30;16.20;;;5.15;;
67516;SDS011;68821;59.134;37.894;2023-12-28T10:43:02;18.08;;;5.28;;
67516;SDS011;68821;59.134;37.894;2023-12-28T10:45:32;12.77;;;5.32;;
67516;SDS011;68821;59.134;37.894;2023-12-28T10:48:09;13.25;;;4.65;;
67516;SDS011;68821;59.134;37.894;2023-12-28T10:59:05;16.15;;;6.38;;
67516;SDS011;68821;59.134;37.894;2023-12-28T11:01:47;13.02;;;4.80;;
67516;SDS011;68821;59.134;37.894;2023-12-28T11:04:18;17.77;;;6.32;;
67516;SDS011;68821;59.134;37.894;2023-12-28T11:07:02;16.38;;;5.95;;
67516;SDS011;68821;59.134;37.894;2023-12-28T11:09:31;13.90;;;6.15;;
67516;SDS011;68821;59.134;37.894;2023-12-28T11:11:57;22.90;;;8.00;;
67516;SDS011;68821;59.134;37.894;2023-12-28T11:14:25;18.67;;;6.65;;
67516;SDS011;68821;59.134;37.894;2023-12-28T11:16:53;34.35;;;16.48;;
67516;SDS011;68821;59.134;37.894;2023-12-28T11:19:20;32.25;;;13.65;;
67516;SDS011;68821;59.134;37.894;2023-12-28T11:21:48;41.90;;;15.02;;
67516;SDS011;68821;59.134;37.894;2023-12-28T11:24:16;56.88;;;19.73;;
67516;SDS011;68821;59.134;37.894;2023-12-28T11:26:43;59.90;;;21.75;;
67516;SDS011;68821;59.134;37.894;2023-12-28T11:29:09;105.25;;;40.33;;
67516;SDS011;68821;59.134;37.894;2023-12-28T11:31:35;110.13;;;37.88;;
67516;SDS011;68821;59.134;37.894;2023-12-28T11:34:03;102.30;;;33.92;;
67516;SDS011;68821;59.134;37.894;2023-12-28T11:36:35;82.55;;;29.73;;
67516;SDS011;68821;59.134;37.894;2023-12-28T11:39:06;48.22;;;18.85;;
67516;SDS011;68821;59.134;37.894;2023-12-28T11:41:33;27.30;;;10.52;;
67516;SDS011;68821;59.134;37.894;2023-12-28T11:44:02;33.72;;;14.32;;
67516;SDS011;68821;59.134;37.894;2023-12-28T11:46:32;13.13;;;7.05;;
67516;SDS011;68821;59.134;37.894;2023-12-28T11:51:33;18.10;;;8.73;;
67516;SDS011;68821;59.134;37.894;2023-12-28T11:54:01;15.43;;;6.07;;
67516;SDS011;68821;59.134;37.894;2023-12-28T11:56:29;18.00;;;9.35;;
67516;SDS011;68821;59.134;37.894;2023-12-28T11:58:56;31.05;;;10.10;;
67516;SDS011;68821;59.134;37.894;2023-12-28T12:01:27;19.45;;;9.05;;
67516;SDS011;68821;59.134;37.894;2023-12-28T12:03:54;19.50;;;9.95;;
67516;SDS011;68821;59.134;37.894;2023-12-28T12:06:20;25.92;;;12.77;;
67516;SDS011;68821;59.134;37.894;2023-12-28T12:08:46;29.73;;;10.70;;
67516;SDS011;68821;59.134;37.894;2023-12-28T12:11:13;30.90;;;18.17;;
67516;SDS011;68821;59.134;37.894;2023-12-28T12:13:39;25.75;;;13.35;;
67516;SDS011;68821;59.134;37.894;2023-12-28T12:16:06;33.47;;;13.05;;
67516;SDS011;68821;59.134;37.894;2023-12-28T12:18:32;28.90;;;16.60;;
67516;SDS011;68821;59.134;37.894;2023-12-28T12:20:59;18.35;;;8.38;;
67516;SDS011;68821;59.134;37.894;2023-12-28T12:23:25;21.13;;;8.40;;
67516;SDS011;68821;59.134;37.894;2023-12-28T12:25:51;28.50;;;8.38;;
67516;SDS011;68821;59.134;37.894;2023-12-28T12:28:18;17.48;;;5.50;;
67516;SDS011;68821;59.134;37.894;2023-12-28T12:30:54;14.48;;;5.47;;
67516;SDS011;68821;59.134;37.894;2023-12-28T12:33:24;23.55;;;5.97;;
67516;SDS011;68821;59.134;37.894;2023-12-28T12:35:53;13.15;;;3.97;;
67516;SDS011;68821;59.134;37.894;2023-12-28T12:38:19;19.05;;;10.27;;
67516;SDS011;68821;59.134;37.894;2023-12-28T12:40:46;16.17;;;6.50;;
67516;SDS011;68821;59.134;37.894;2023-12-28T12:43:12;14.23;;;5.85;;
67516;SDS011;68821;59.134;37.894;2023-12-28T12:45:39;16.38;;;6.70;;
67516;SDS011;68821;59.134;37.894;2023-12-28T12:48:05;11.13;;;5.97;;
67516;SDS011;68821;59.134;37.894;2023-12-28T12:50:32;9.93;;;5.28;;
67516;SDS011;68821;59.134;37.894;2023-12-28T12:52:59;13.77;;;5.80;;
67516;SDS011;68821;59.134;37.894;2023-12-28T12:55:26;13.00;;;6.47;;
67516;SDS011;68821;59.134;37.894;2023-12-28T12:57:53;13.23;;;5.13;;
67516;SDS011;68821;59.134;37.894;2023-12-28T13:00:21;16.40;;;4.55;;
67516;SDS011;68821;59.134;37.894;2023-12-28T13:02:51;12.20;;;4.20;;
67516;SDS011;68821;59.134;37.894;2023-12-28T13:05:19;11.23;;;3.80;;
67516;SDS011;68821;59.134;37.894;2023-12-28T13:07:45;9.85;;;3.83;;
67516;SDS011;68821;59.134;37.894;2023-12-28T13:10:11;11.45;;;2.97;;
67516;SDS011;68821;59.134;37.894;2023-12-28T13:12:38;9.77;;;3.60;;
67516;SDS011;68821;59.134;37.894;2023-12-28T13:15:06;19.42;;;3.35;;
67516;SDS011;68821;59.134;37.894;2023-12-28T13:17:35;10.07;;;3.72;;
67516;SDS011;68821;59.134;37.894;2023-12-28T13:20:03;15.07;;;3.80;;
67516;SDS011;68821;59.134;37.894;2023-12-28T13:22:34;7.20;;;2.88;;
67516;SDS011;68821;59.134;37.894;2023-12-28T13:25:00;11.98;;;4.03;;
67516;SDS011;68821;59.134;37.894;2023-12-28T13:27:27;11.95;;;3.85;;
67516;SDS011;68821;59.134;37.894;2023-12-28T13:29:54;27.27;;;4.45;;
67516;SDS011;68821;59.134;37.894;2023-12-28T13:32:20;18.23;;;2.92;;
67516;SDS011;68821;59.134;37.894;2023-12-28T13:34:48;15.88;;;3.17;;
67516;SDS011;68821;59.134;37.894;2023-12-28T13:37:18;14.60;;;3.35;;
67516;SDS011;68821;59.134;37.894;2023-12-28T13:39:44;9.80;;;3.75;;
67516;SDS011;68821;59.134;37.894;2023-12-28T13:42:12;10.20;;;4.28;;
67516;SDS011;68821;59.134;37.894;2023-12-28T13:44:38;9.95;;;3.33;;
67516;SDS011;68821;59.134;37.894;2023-12-28T13:47:04;7.38;;;2.92;;
67516;SDS011;68821;59.134;37.894;2023-12-28T13:49:33;12.63;;;2.90;;
67516;SDS011;68821;59.134;37.894;2023-12-28T13:51:59;16.60;;;4.43;;
67516;SDS011;68821;59.134;37.894;2023-12-28T13:54:25;11.80;;;4.20;;
67516;SDS011;68821;59.134;37.894;2023-12-28T13:56:51;13.45;;;4.72;;
67516;SDS011;68821;59.134;37.894;2023-12-28T13:59:23;10.40;;;4.88;;
67516;SDS011;68821;59.134;37.894;2023-12-28T14:01:49;14.32;;;5.72;;
67516;SDS011;68821;59.134;37.894;2023-12-28T14:04:15;20.08;;;6.57;;
67516;SDS011;68821;59.134;37.894;2023-12-28T14:06:41;11.77;;;5.25;;
67516;SDS011;68821;59.134;37.894;2023-12-28T14:09:07;14.57;;;4.88;;
67516;SDS011;68821;59.134;37.894;2023-12-28T14:11:33;11.98;;;4.78;;
67516;SDS011;68821;59.134;37.894;2023-12-28T14:14:00;12.57;;;5.72;;
67516;SDS011;68821;59.134;37.894;2023-12-28T14:16:26;16.88;;;6.10;;
67516;SDS011;68821;59.134;37.894;2023-12-28T14:18:52;11.70;;;4.45;;
67516;SDS011;68821;59.134;37.894;2023-12-28T14:21:18;14.00;;;5.97;;
67516;SDS011;68821;59.134;37.894;2023-12-28T14:23:45;13.30;;;5.93;;
67516;SDS011;68821;59.134;37.894;2023-12-28T14:26:12;16.30;;;5.82;;
67516;SDS011;68821;59.134;37.894;2023-12-28T14:28:43;17.63;;;5.45;;